Time;durP1;ratioP1;P1;durP2;ratioP2;P2;SDS_P1;SDS_P2;PMS_P1;PMS_P2;Temp;Humidity;BMP_temperature;BMP_pressure;BME280_temperature;BME280_humidity;BME280_pressure;Samples;Min_cycle;Max_cycle;Signal;HPM_P1;HPM_P2
2024/01/14 07:19:19;;;;;;;84.53;10.18;;;;;;;;;;4640283;30;20081;-91
2024/01/14 07:21:45;;;;;;;76.22;10.30;;;;;;;;;;4648104;30;20113;-91
2024/01/14 07:24:10;;;;;;;61.20;8.73;;;;;;;;;;4632074;30;20185;-91
2024/01/14 07:26:36;;;;;;;38.65;8.45;;;;;;;;;;4647745;30;20050;-91
2024/01/14 07:29:01;;;;;;;40.05;9.05;;;;;;;;;;4627819;30;20050;-91
2024/01/14 07:31:27;;;;;;;33.85;8.77;;;;;;;;;;4632360;30;20042;-91
2024/01/14 07:34:08;;;;;;;37.53;8.07;;;;;;;;;;4683078;30;20577;-91
2024/01/14 07:36:49;;;;;;;108.32;12.60;;;;;;;;;;4685799;30;20569;-91
2024/01/14 07:39:19;;;;;;;38.28;9.32;;;;;;;;;;4719583;30;20046;-91
2024/01/14 07:41:46;;;;;;;34.00;8.60;;;;;;;;;;4695095;30;20069;-91
2024/01/14 07:44:13;;;;;;;61.20;8.02;;;;;;;;;;4746875;29;20050;-91
2024/01/14 07:46:40;;;;;;;70.68;10.82;;;;;;;;;;4772199;30;20395;-91
2024/01/14 07:49:28;;;;;;;58.05;8.73;;;;;;;;;;4781777;29;20070;-92
2024/01/14 07:52:36;;;;;;;100.20;11.95;;;;;;;;;;4791574;29;20053;-92
2024/01/14 07:55:47;;;;;;;98.60;12.35;;;;;;;;;;4797314;29;20041;-92
2024/01/14 08:02:27;;;;;;;110.75;11.30;;;;;;;;;;4801777;29;20765;-95
2024/01/14 08:05:27;;;;;;;59.55;8.98;;;;;;;;;;4800581;29;20086;-91
2024/01/14 08:07:54;;;;;;;211.77;19.58;;;;;;;;;;4790518;29;20051;-93
2024/01/14 08:10:21;;;;;;;44.38;7.43;;;;;;;;;;4819583;29;20049;-91
2024/01/14 08:12:47;;;;;;;79.38;10.23;;;;;;;;;;4841815;29;20045;-92
2024/01/14 08:15:14;;;;;;;46.90;8.77;;;;;;;;;;4855191;29;20099;-92
2024/01/14 08:17:43;;;;;;;46.10;8.85;;;;;;;;;;4840307;29;20110;-91
2024/01/14 08:20:10;;;;;;;75.32;10.02;;;;;;;;;;4843146;29;20041;-92
2024/01/14 08:22:39;;;;;;;17.10;6.97;;;;;;;;;;4859397;29;20036;-92
2024/01/14 08:25:10;;;;;;;40.45;8.70;;;;;;;;;;4841418;29;20049;-91
2024/01/14 08:27:38;;;;;;;53.15;9.15;;;;;;;;;;4821123;29;20042;-92
2024/01/14 08:30:05;;;;;;;36.17;8.00;;;;;;;;;;4831200;29;20045;-92
2024/01/14 08:32:32;;;;;;;32.10;7.50;;;;;;;;;;4824270;29;20050;-93
2024/01/14 08:34:59;;;;;;;33.47;8.25;;;;;;;;;;4846635;29;20064;-92
2024/01/14 08:37:39;;;;;;;;;;;;;;;;;;;;;
2024/01/14 08:40:55;;;;;;;74.28;9.52;;;;;;;;;;4862412;29;20049;-91
2024/01/14 08:43:26;;;;;;;42.45;7.80;;;;;;;;;;4846391;29;20044;-91
2024/01/14 08:46:09;;;;;;;54.33;7.95;;;;;;;;;;4843100;29;20038;-94
2024/01/14 08:48:42;;;;;;;39.95;7.07;;;;;;;;;;4847281;29;20473;-92
2024/01/14 08:51:19;;;;;;;25.15;6.53;;;;;;;;;;4860994;29;20037;-92
2024/01/14 08:54:00;;;;;;;97.82;11.05;;;;;;;;;;4825123;29;20102;-92
2024/01/14 08:57:07;;;;;;;51.20;7.85;;;;;;;;;;4847706;29;20459;-93
2024/01/14 09:00:13;;;;;;;85.47;8.50;;;;;;;;;;4841015;29;20093;-93
2024/01/14 09:03:06;;;;;;;56.28;6.57;;;;;;;;;;4858676;29;20103;-93
2024/01/14 09:06:28;;;;;;;50.65;6.70;;;;;;;;;;4844060;29;20129;-92
2024/01/14 09:12:47;;;;;;;;;;;;;;;;;;;;;
2024/01/14 09:16:05;;;;;;;68.45;8.77;;;;;;;;;;4814958;29;20579;-93
2024/01/14 09:18:43;;;;;;;160.38;17.65;;;;;;;;;;4802106;29;20175;-90
2024/01/14 09:21:13;;;;;;;124.90;12.77;;;;;;;;;;4782815;29;20946;-89
2024/01/14 09:23:42;;;;;;;62.55;7.55;;;;;;;;;;4783224;29;20111;-92
2024/01/14 09:27:19;;;;;;;28.08;5.78;;;;;;;;;;4798333;29;20510;-93
2024/01/14 09:30:14;;;;;;;47.95;6.85;;;;;;;;;;4819992;29;20050;-93
2024/01/14 09:33:20;;;;;;;38.50;6.70;;;;;;;;;;4815775;29;20054;-92
2024/01/14 09:36:30;;;;;;;294.30;27.35;;;;;;;;;;4777265;29;20051;-92
2024/01/14 09:39:04;;;;;;;159.90;14.10;;;;;;;;;;4790122;29;20502;-92
2024/01/14 09:45:17;;;;;;;134.07;11.75;;;;;;;;;;4778473;29;20066;-92
2024/01/14 09:48:18;;;;;;;;;;;;;;;;;;;;;
2024/01/14 10:14:53;;;;;;;893.20;84.18;;;;;;;;;;4687955;30;20010;-89
2024/01/14 10:25:37;;;;;;;817.33;77.68;;;;;;;;;;4753007;29;20064;-88
2024/01/14 10:28:21;;;;;;;765.47;74.40;;;;;;;;;;4744451;29;20048;-89
2024/01/14 10:31:20;;;;;;;824.97;77.85;;;;;;;;;;4753930;29;20045;-89
2024/01/14 10:33:50;;;;;;;678.72;61.97;;;;;;;;;;4768309;29;20037;-88
2024/01/14 10:37:02;;;;;;;795.88;74.28;;;;;;;;;;4758219;29;20642;-89
2024/01/14 11:35:32;;;;;;;686.97;63.13;;;;;;;;;;4771430;29;20033;-91
2024/01/14 11:37:58;;;;;;;711.10;66.25;;;;;;;;;;4752844;29;20045;-90
2024/01/14 11:40:29;;;;;;;798.45;74.90;;;;;;;;;;4731585;29;20037;-91
2024/01/14 11:47:15;;;;;;;723.67;67.15;;;;;;;;;;4703403;30;20294;-91
2024/01/14 11:50:13;;;;;;;807.83;75.80;;;;;;;;;;4682561;30;20056;-88
2024/01/14 11:52:40;;;;;;;;;;;;;;;;;;4694170;29;20051;-91
2024/01/14 11:55:07;;;;;;;719.05;67.75;;;;;;;;;;4676929;30;19925;-91
2024/01/14 11:57:33;;;;;;;733.63;68.63;;;;;;;;;;4688425;30;20063;-90
2024/01/14 12:00:01;;;;;;;652.97;58.83;;;;;;;;;;4682523;30;20898;-91
2024/01/14 12:02:34;;;;;;;572.65;50.47;;;;;;;;;;4703795;30;20158;-91
2024/01/14 12:05:14;;;;;;;637.33;57.13;;;;;;;;;;4690510;30;20070;-91
2024/01/14 12:07:42;;;;;;;616.97;55.22;;;;;;;;;;4686048;30;20057;-91
2024/01/14 12:10:12;;;;;;;691.13;64.97;;;;;;;;;;4686996;30;20059;-90
2024/01/14 12:12:39;;;;;;;669.00;61.47;;;;;;;;;;4676581;30;20079;-90
2024/01/14 12:15:06;;;;;;;689.80;63.22;;;;;;;;;;4681671;30;20046;-91
2024/01/14 12:21:03;;;;;;;848.65;80.15;;;;;;;;;;4694074;29;20898;-90
2024/01/14 12:23:52;;;;;;;722.13;67.27;;;;;;;;;;4750731;29;21139;-89
2024/01/14 12:26:22;;;;;;;806.45;77.65;;;;;;;;;;4749848;29;20300;-90
2024/01/14 12:28:51;;;;;;;866.53;84.82;;;;;;;;;;4776396;29;20041;-90
2024/01/14 12:31:24;;;;;;;788.90;76.00;;;;;;;;;;4753501;29;20038;-90
2024/01/14 12:34:04;;;;;;;781.95;74.47;;;;;;;;;;4765141;29;20040;-91
2024/01/14 12:36:34;;;;;;;739.08;68.15;;;;;;;;;;4754302;29;20052;-91
2024/01/14 12:39:17;;;;;;;720.28;66.40;;;;;;;;;;4765109;29;20041;-91
2024/01/14 12:41:44;;;;;;;755.08;71.00;;;;;;;;;;4760695;29;20045;-91
2024/01/14 12:44:29;;;;;;;512.05;44.90;;;;;;;;;;4776457;29;20076;-92
2024/01/14 13:43:20;;;;;;;440.63;37.42;;;;;;;;;;4732975;30;20036;-92
2024/01/14 13:50:31;;;;;;;659.72;56.33;;;;;;;;;;4618503;30;20459;-91
2024/01/14 15:05:01;;;;;;;125.28;11.57;;;;;;;;;;4732861;30;20505;-92
2024/01/14 15:11:42;;;;;;;38.88;6.50;;;;;;;;;;4711603;30;20045;-92
2024/01/14 16:25:22;;;;;;;;;;;;;;;;;;4721339;30;20494;-91
2024/01/14 16:32:25;;;;;;;102.75;12.30;;;;;;;;;;4732257;30;20199;-92
2024/01/14 18:59:55;;;;;;;704.53;65.43;;;;;;;;;;4766604;29;20118;-88
2024/01/14 19:02:57;;;;;;;644.35;59.65;;;;;;;;;;4742303;29;20042;-92
2024/01/14 19:05:44;;;;;;;823.72;78.70;;;;;;;;;;4680768;29;20161;-90
2024/01/14 19:08:22;;;;;;;904.42;88.50;;;;;;;;;;4669517;29;20584;-89
2024/01/14 19:10:55;;;;;;;892.80;88.28;;;;;;;;;;4677048;29;20046;-89
2024/01/14 19:13:27;;;;;;;806.03;77.45;;;;;;;;;;4695710;29;20598;-89
2024/01/14 19:15:56;;;;;;;801.50;76.85;;;;;;;;;;4688302;29;20602;-89
2024/01/14 19:18:24;;;;;;;820.97;79.22;;;;;;;;;;4683413;29;20930;-90
2024/01/14 19:20:52;;;;;;;1065.60;106.90;;;;;;;;;;4703016;29;20164;-90
2024/01/14 19:23:19;;;;;;;800.50;77.85;;;;;;;;;;4746816;29;20045;-89
2024/01/14 19:25:47;;;;;;;795.53;76.55;;;;;;;;;;4750459;29;20045;-89
2024/01/14 19:28:22;;;;;;;855.33;82.55;;;;;;;;;;4748487;29;20892;-90
2024/01/14 19:31:02;;;;;;;711.20;66.53;;;;;;;;;;4757658;29;20456;-90
2024/01/14 19:33:43;;;;;;;814.00;77.85;;;;;;;;;;4745085;29;20135;-89
2024/01/14 19:36:11;;;;;;;885.80;86.35;;;;;;;;;;4732486;29;20053;-89
2024/01/14 19:38:38;;;;;;;759.00;71.22;;;;;;;;;;4736755;29;20040;-90
2024/01/14 19:41:08;;;;;;;792.25;75.22;;;;;;;;;;4740467;29;20041;-90
2024/01/14 19:43:42;;;;;;;795.63;75.88;;;;;;;;;;4740974;29;20113;-90
2024/01/14 19:46:09;;;;;;;807.25;76.70;;;;;;;;;;4742785;29;20422;-91
2024/01/14 19:48:39;;;;;;;766.63;72.40;;;;;;;;;;4761694;29;20061;-90
2024/01/14 19:51:10;;;;;;;886.22;85.75;;;;;;;;;;4772828;29;20056;-90
2024/01/14 19:53:38;;;;;;;742.53;69.15;;;;;;;;;;4771246;29;20148;-90
2024/01/14 19:56:05;;;;;;;783.90;74.20;;;;;;;;;;4755966;29;20048;-90
2024/01/14 19:58:35;;;;;;;858.83;82.82;;;;;;;;;;4755663;29;20069;-90
2024/01/14 20:01:07;;;;;;;805.22;77.53;;;;;;;;;;4744339;29;20072;-90
2024/01/14 20:03:37;;;;;;;846.78;82.20;;;;;;;;;;4753279;29;20044;-89
2024/01/14 20:06:09;;;;;;;824.47;78.68;;;;;;;;;;4738187;29;20061;-89
2024/01/14 20:08:36;;;;;;;1074.65;109.25;;;;;;;;;;4738000;29;20308;-89
2024/01/14 20:11:06;;;;;;;818.95;77.88;;;;;;;;;;4757833;29;20168;-89
2024/01/14 20:13:35;;;;;;;785.70;74.70;;;;;;;;;;4756552;29;20113;-89
2024/01/14 20:16:03;;;;;;;805.42;79.22;;;;;;;;;;4742862;29;20045;-89
2024/01/14 20:18:33;;;;;;;844.45;82.25;;;;;;;;;;4752306;29;21210;-89
2024/01/14 20:21:03;;;;;;;815.40;78.28;;;;;;;;;;4740787;29;20159;-89
2024/01/14 20:23:30;;;;;;;837.47;80.50;;;;;;;;;;4776178;29;20475;-89
2024/01/14 20:25:59;;;;;;;800.75;77.60;;;;;;;;;;4752818;29;20218;-89
2024/01/14 20:28:32;;;;;;;807.70;78.25;;;;;;;;;;4751848;29;20528;-90
2024/01/14 20:31:00;;;;;;;824.10;82.70;;;;;;;;;;4755441;29;20061;-90
2024/01/14 20:33:28;;;;;;;859.45;88.38;;;;;;;;;;4753773;29;20064;-89
2024/01/14 20:35:55;;;;;;;807.67;81.43;;;;;;;;;;4742478;29;20045;-89
2024/01/14 20:38:24;;;;;;;836.38;83.85;;;;;;;;;;4748797;29;20048;-89
2024/01/14 20:40:53;;;;;;;794.88;78.03;;;;;;;;;;4763684;29;20037;-89
2024/01/14 20:43:20;;;;;;;773.47;75.03;;;;;;;;;;4746295;29;20121;-89
2024/01/14 20:45:49;;;;;;;814.55;80.40;;;;;;;;;;4753601;29;20888;-89
2024/01/14 20:48:17;;;;;;;830.25;81.20;;;;;;;;;;4767937;29;20044;-89
2024/01/14 20:50:44;;;;;;;867.95;84.60;;;;;;;;;;4734729;29;20891;-89
2024/01/14 20:53:12;;;;;;;827.25;82.18;;;;;;;;;;4769136;29;20041;-89
2024/01/14 20:55:39;;;;;;;798.55;77.47;;;;;;;;;;4752543;29;20122;-89
2024/01/14 20:58:16;;;;;;;761.47;73.22;;;;;;;;;;4751590;29;20049;-90
2024/01/14 21:00:43;;;;;;;771.13;74.97;;;;;;;;;;4741578;29;20913;-90
2024/01/14 21:03:12;;;;;;;840.67;82.18;;;;;;;;;;4767584;29;20049;-89
2024/01/14 21:05:42;;;;;;;812.55;79.57;;;;;;;;;;4745850;29;20072;-89
2024/01/14 21:08:10;;;;;;;780.95;76.05;;;;;;;;;;4747574;29;20114;-89
2024/01/14 21:10:41;;;;;;;761.08;75.15;;;;;;;;;;4738170;29;20060;-89
2024/01/14 21:13:08;;;;;;;907.83;92.20;;;;;;;;;;4740524;29;20162;-89
2024/01/14 21:15:37;;;;;;;825.63;81.18;;;;;;;;;;4751661;29;20129;-89
2024/01/14 21:18:04;;;;;;;799.08;79.13;;;;;;;;;;4745183;29;20041;-89
2024/01/14 21:20:32;;;;;;;813.88;80.53;;;;;;;;;;4750959;29;20839;-89
2024/01/14 21:23:00;;;;;;;776.00;77.13;;;;;;;;;;4771573;29;20044;-90
2024/01/14 21:25:26;;;;;;;739.60;73.15;;;;;;;;;;4753430;29;20042;-90
2024/01/14 21:28:00;;;;;;;793.80;78.95;;;;;;;;;;4774734;29;20042;-90
2024/01/14 21:30:50;;;;;;;1003.03;103.65;;;;;;;;;;4749310;29;20151;-88
2024/01/14 21:33:17;;;;;;;818.22;83.28;;;;;;;;;;4752010;29;20045;-89
2024/01/14 21:35:47;;;;;;;838.90;84.10;;;;;;;;;;4726602;29;20049;-89
2024/01/14 21:38:14;;;;;;;845.00;86.55;;;;;;;;;;4740204;29;20148;-89
2024/01/14 21:40:41;;;;;;;827.72;85.07;;;;;;;;;;4770377;29;20205;-89
2024/01/14 21:43:09;;;;;;;781.55;77.30;;;;;;;;;;4771418;29;20055;-92
2024/01/14 21:45:38;;;;;;;839.60;84.65;;;;;;;;;;4749936;29;20044;-89
2024/01/14 21:48:09;;;;;;;789.05;79.53;;;;;;;;;;4746775;29;20065;-89
2024/01/14 21:50:35;;;;;;;766.60;77.60;;;;;;;;;;4777977;29;20056;-90
2024/01/14 21:53:07;;;;;;;795.42;79.05;;;;;;;;;;4762119;29;20060;-90
2024/01/14 21:55:43;;;;;;;814.10;81.65;;;;;;;;;;4758087;29;21035;-90
2024/01/14 21:58:11;;;;;;;770.67;76.28;;;;;;;;;;4762752;29;20037;-90
2024/01/14 22:00:39;;;;;;;812.90;81.18;;;;;;;;;;4742501;29;20983;-89
2024/01/14 22:03:06;;;;;;;821.72;82.45;;;;;;;;;;4774580;29;20901;-89
2024/01/14 22:05:34;;;;;;;848.65;83.22;;;;;;;;;;4754551;29;20863;-89
2024/01/14 22:08:02;;;;;;;808.70;79.60;;;;;;;;;;4768164;29;20094;-89
2024/01/14 22:10:29;;;;;;;763.85;75.07;;;;;;;;;;4756934;29;20049;-89
2024/01/14 22:12:57;;;;;;;777.33;76.32;;;;;;;;;;4759997;29;20898;-89
2024/01/14 22:15:24;;;;;;;796.90;79.10;;;;;;;;;;4741035;29;20052;-89
2024/01/14 22:17:52;;;;;;;787.33;77.93;;;;;;;;;;4774409;29;21146;-89
2024/01/14 22:20:22;;;;;;;793.35;78.80;;;;;;;;;;4750587;29;20073;-89
2024/01/14 22:22:49;;;;;;;790.47;77.82;;;;;;;;;;4754005;29;20060;-89
2024/01/14 22:25:25;;;;;;;804.90;78.00;;;;;;;;;;4746154;29;20080;-89
2024/01/14 22:28:08;;;;;;;;;;;;;;;;;;4757245;29;20050;-90
2024/01/14 22:30:40;;;;;;;808.22;80.22;;;;;;;;;;4758300;29;19980;-90
2024/01/14 22:33:09;;;;;;;766.78;72.88;;;;;;;;;;4751163;29;21290;-90
2024/01/14 22:35:37;;;;;;;829.60;80.28;;;;;;;;;;4757363;29;20827;-90
2024/01/14 22:38:04;;;;;;;794.15;76.28;;;;;;;;;;4748187;29;21020;-89
2024/01/14 22:40:33;;;;;;;733.72;70.78;;;;;;;;;;4757229;29;20908;-89
2024/01/14 22:43:02;;;;;;;770.67;74.07;;;;;;;;;;4751503;29;20034;-89
2024/01/14 22:45:29;;;;;;;764.63;74.38;;;;;;;;;;4777973;29;20048;-90
2024/01/14 22:47:56;;;;;;;773.08;75.85;;;;;;;;;;4774154;29;20044;-90
2024/01/14 22:50:23;;;;;;;792.97;77.38;;;;;;;;;;4748804;29;20053;-89
2024/01/14 22:52:50;;;;;;;771.70;75.80;;;;;;;;;;4756963;29;20151;-90
2024/01/14 22:55:17;;;;;;;768.00;73.90;;;;;;;;;;4761453;29;20163;-90
2024/01/14 22:57:44;;;;;;;719.13;66.50;;;;;;;;;;4753474;29;20041;-89
2024/01/14 23:00:19;;;;;;;712.97;67.38;;;;;;;;;;4784588;29;20063;-90
2024/01/14 23:02:58;;;;;;;775.08;74.68;;;;;;;;;;4757799;29;20856;-89
2024/01/14 23:05:25;;;;;;;708.83;67.85;;;;;;;;;;4762159;29;20044;-90
2024/01/14 23:07:59;;;;;;;673.58;62.72;;;;;;;;;;4763707;29;20045;-89
2024/01/14 23:10:38;;;;;;;725.85;69.05;;;;;;;;;;4759259;29;20043;-90
2024/01/14 23:13:10;;;;;;;706.10;65.93;;;;;;;;;;4755990;29;20049;-90
2024/01/14 23:15:39;;;;;;;771.88;72.13;;;;;;;;;;4759897;29;20118;-89
2024/01/14 23:18:10;;;;;;;747.58;70.45;;;;;;;;;;4748534;29;20056;-90
2024/01/14 23:20:42;;;;;;;754.30;70.88;;;;;;;;;;4755923;29;20232;-89
2024/01/14 23:23:14;;;;;;;727.53;68.43;;;;;;;;;;4748895;29;20049;-90
2024/01/14 23:25:43;;;;;;;788.58;75.10;;;;;;;;;;4737772;29;20056;-90
2024/01/14 23:28:10;;;;;;;796.28;75.55;;;;;;;;;;4756708;29;20851;-90
2024/01/14 23:30:45;;;;;;;820.33;79.70;;;;;;;;;;4751896;29;20084;-90
2024/01/14 23:33:12;;;;;;;786.22;75.85;;;;;;;;;;4762701;29;20061;-89
2024/01/14 23:35:39;;;;;;;768.75;72.05;;;;;;;;;;4746882;29;21023;-90
2024/01/14 23:38:06;;;;;;;753.75;73.15;;;;;;;;;;4741752;29;20053;-90
2024/01/14 23:40:32;;;;;;;697.38;66.07;;;;;;;;;;4764710;29;20041;-90
2024/01/14 23:42:59;;;;;;;731.03;69.35;;;;;;;;;;4782328;29;20976;-89
2024/01/14 23:45:26;;;;;;;797.50;77.40;;;;;;;;;;4757611;29;20225;-90
2024/01/14 23:47:53;;;;;;;748.70;72.45;;;;;;;;;;4757853;29;20862;-90
2024/01/14 23:50:19;;;;;;;748.00;72.82;;;;;;;;;;4757804;29;20061;-91
2024/01/14 23:52:46;;;;;;;770.15;73.97;;;;;;;;;;4759387;29;20485;-91
2024/01/14 23:55:13;;;;;;;746.50;72.10;;;;;;;;;;4753062;29;21209;-90
2024/01/14 23:57:40;;;;;;;792.47;77.53;;;;;;;;;;4776795;29;20133;-90
